createdAt,value
2023-03-13T00:00:11.833Z,16.55
2023-03-13T00:02:52.309Z,14.75
2023-03-13T00:05:38.851Z,14.32
2023-03-13T00:08:19.329Z,20.95
2023-03-13T00:11:05.826Z,19.45
2023-03-13T00:13:46.360Z,16.27
2023-03-13T00:16:32.871Z,15.27
2023-03-13T00:19:13.356Z,14.60
2023-03-13T00:21:59.845Z,15.82
2023-03-13T00:24:40.309Z,17.92
2023-03-13T00:27:26.830Z,12.23
2023-03-13T00:30:07.810Z,14.52
2023-03-13T00:32:55.950Z,16.30
2023-03-13T00:35:36.343Z,14.20
2023-03-13T00:38:22.835Z,15.00
2023-03-13T00:41:09.068Z,17.17
2023-03-13T00:43:56.826Z,17.00
2023-03-13T00:46:43.855Z,15.93
2023-03-13T00:49:30.840Z,14.32
2023-03-13T00:52:11.322Z,20.83
2023-03-13T00:54:57.820Z,14.75
2023-03-13T00:57:38.488Z,12.77
2023-03-13T01:00:25.829Z,15.00
2023-03-13T01:03:05.974Z,13.60
2023-03-13T01:06:00.834Z,14.23
2023-03-13T01:08:40.887Z,11.27
2023-03-13T01:11:33.878Z,12.88
2023-03-13T01:14:24.832Z,15.23
2023-03-13T01:17:11.923Z,14.82
2023-03-13T01:19:51.840Z,11.38
2023-03-13T01:22:32.376Z,14.40
2023-03-13T01:25:19.836Z,14.75
2023-03-13T01:28:06.845Z,11.65
2023-03-13T01:30:47.010Z,12.10
2023-03-13T01:33:33.841Z,12.98
2023-03-13T01:36:14.896Z,10.23
2023-03-13T01:39:03.849Z,9.35
2023-03-13T01:41:44.918Z,12.13
2023-03-13T01:44:33.841Z,11.75
2023-03-13T01:47:13.889Z,10.43
2023-03-13T01:50:20.862Z,10.02
2023-03-13T01:53:23.889Z,9.02
2023-03-13T01:56:14.852Z,9.63
2023-03-13T01:59:04.852Z,7.03
2023-03-13T02:01:48.876Z,8.85
2023-03-13T02:04:37.865Z,7.57
2023-03-13T02:07:31.468Z,6.63
2023-03-13T02:10:18.876Z,7.88
2023-03-13T02:13:16.850Z,8.95
2023-03-13T02:15:57.600Z,6.85
2023-03-13T02:18:43.846Z,8.30
2023-03-13T02:21:42.845Z,10.73
2023-03-13T02:24:47.838Z,6.20
2023-03-13T02:27:28.471Z,8.50
2023-03-13T02:30:15.881Z,9.52
2023-03-13T02:33:02.922Z,7.70
2023-03-13T02:35:43.938Z,8.02
2023-03-13T02:38:34.846Z,7.32
2023-03-13T02:41:22.834Z,7.82
2023-03-13T02:44:05.972Z,10.48
2023-03-13T02:47:02.883Z,7.28
2023-03-13T02:49:43.352Z,9.18
2023-03-13T02:52:37.852Z,7.60
2023-03-13T02:55:28.278Z,7.55
2023-03-13T02:58:14.838Z,7.90
2023-03-13T03:00:55.617Z,7.80
2023-03-13T03:03:42.911Z,9.30
2023-03-13T03:06:29.854Z,10.93
2023-03-13T03:09:11.923Z,10.45
2023-03-13T03:11:58.845Z,8.25
2023-03-13T03:14:39.909Z,9.48
2023-03-13T03:17:26.854Z,8.07
2023-03-13T03:20:12.011Z,8.70
2023-03-13T03:22:58.852Z,9.88
2023-03-13T03:28:32.856Z,11.02
2023-03-13T03:31:20.922Z,9.50
2023-03-13T03:34:08.860Z,10.60
2023-03-13T03:36:48.891Z,10.65
2023-03-13T03:39:35.827Z,10.45
2023-03-13T03:45:04.173Z,10.10
2023-03-13T03:50:44.851Z,8.55
2023-03-13T03:53:25.514Z,10.65
2023-03-13T03:56:12.872Z,10.88
2023-03-13T03:59:04.842Z,10.32
2023-03-13T04:01:49.042Z,8.68
2023-03-13T04:04:37.853Z,8.88
2023-03-13T04:07:31.950Z,10.40
2023-03-13T04:10:18.873Z,9.98
2023-03-13T04:15:53.365Z,7.85
2023-03-13T04:18:39.842Z,8.43
2023-03-13T04:21:26.910Z,9.38
2023-03-13T04:24:11.853Z,9.70
2023-03-13T04:26:52.363Z,9.23
2023-03-13T04:29:39.859Z,10.18
2023-03-13T04:32:43.472Z,8.45
2023-03-13T04:35:43.911Z,7.78
2023-03-13T04:38:37.837Z,10.20
2023-03-13T04:41:32.916Z,8.25
2023-03-13T04:44:31.850Z,6.70
2023-03-13T04:47:38.063Z,8.88
2023-03-13T04:50:42.850Z,7.60
2023-03-13T04:53:58.858Z,12.15
2023-03-13T04:56:57.352Z,8.05
2023-03-13T05:00:00.859Z,9.18
2023-03-13T05:02:41.338Z,10.30
2023-03-13T05:05:41.876Z,8.77
2023-03-13T05:08:42.434Z,6.85
2023-03-13T05:11:48.873Z,8.00
2023-03-13T05:14:37.783Z,9.65
2023-03-13T05:17:39.847Z,8.60
2023-03-13T05:20:31.391Z,11.18
2023-03-13T05:23:36.857Z,8.02
2023-03-13T05:26:34.351Z,6.60
2023-03-13T05:29:36.868Z,13.43
2023-03-13T05:32:34.410Z,7.07
2023-03-13T05:35:50.853Z,10.20
2023-03-13T05:38:54.395Z,10.15
2023-03-13T05:41:57.853Z,10.02
2023-03-13T05:44:43.382Z,6.32
2023-03-13T05:47:49.875Z,8.30
2023-03-13T05:50:35.366Z,7.28
2023-03-13T05:53:37.871Z,10.13
2023-03-13T05:56:35.853Z,13.38
2023-03-13T05:59:34.876Z,9.75
2023-03-13T06:02:42.381Z,10.35
2023-03-13T06:05:34.854Z,9.55
2023-03-13T06:08:27.952Z,9.80
2023-03-13T06:11:15.891Z,9.18
2023-03-13T06:14:02.905Z,8.60
2023-03-13T06:17:01.866Z,9.52
2023-03-13T06:19:42.374Z,8.98
2023-03-13T06:22:30.837Z,7.70
2023-03-13T06:25:11.534Z,10.65
2023-03-13T06:27:57.854Z,8.57
2023-03-13T06:30:38.375Z,6.60
2023-03-13T06:33:25.939Z,12.75
2023-03-13T06:36:06.740Z,8.60
2023-03-13T06:38:46.854Z,9.15
2023-03-13T06:41:27.700Z,9.73
2023-03-13T06:44:13.860Z,6.78
2023-03-13T06:49:40.871Z,5.85
2023-03-13T06:55:12.955Z,8.20
2023-03-13T06:58:04.868Z,8.10
2023-03-13T07:00:52.888Z,8.88
2023-03-13T07:03:32.943Z,8.20
2023-03-13T07:06:19.866Z,7.90
2023-03-13T07:11:46.871Z,7.65
2023-03-13T07:17:13.899Z,9.48
2023-03-13T07:22:40.873Z,8.77
2023-03-13T07:25:27.845Z,10.05
2023-03-13T07:28:14.863Z,6.35
2023-03-13T07:33:41.865Z,6.35
2023-03-13T07:36:23.020Z,7.03
2023-03-13T07:39:09.862Z,5.10
2023-03-13T07:41:56.886Z,5.15
2023-03-13T07:47:23.875Z,6.43
2023-03-13T07:50:04.766Z,5.88
2023-03-13T07:52:52.003Z,6.90
2023-03-13T07:58:18.865Z,8.60
2023-03-13T08:03:46.936Z,5.18
2023-03-13T08:06:37.012Z,7.95
2023-03-13T08:09:16.862Z,7.00
2023-03-13T08:12:10.868Z,6.75
2023-03-13T08:14:57.869Z,7.47
2023-03-13T08:20:27.880Z,7.20
2023-03-13T08:23:07.946Z,6.93
2023-03-13T08:25:54.848Z,6.00
2023-03-13T08:31:43.862Z,6.28
2023-03-13T08:34:31.876Z,7.85
2023-03-13T08:37:21.920Z,5.93
2023-03-13T08:40:02.912Z,5.18
2023-03-13T08:42:45.358Z,4.10
2023-03-13T08:45:31.859Z,7.55
2023-03-13T08:51:09.897Z,6.63
2023-03-13T08:53:50.827Z,6.05
2023-03-13T08:56:39.886Z,7.22
2023-03-13T08:59:26.908Z,7.68
2023-03-13T09:05:00.929Z,5.13
2023-03-13T09:10:27.964Z,6.35
2023-03-13T09:16:05.010Z,6.80
2023-03-13T09:18:45.878Z,8.02
2023-03-13T09:21:44.870Z,4.60
2023-03-13T09:24:31.873Z,7.20
2023-03-13T09:29:58.873Z,9.30
2023-03-13T09:35:26.451Z,6.85
2023-03-13T09:38:12.861Z,7.43
2023-03-13T09:44:13.872Z,6.65
2023-03-13T09:47:01.225Z,7.32
2023-03-13T09:49:54.897Z,5.03
2023-03-13T09:52:47.878Z,4.93
2023-03-13T09:58:30.882Z,4.68
2023-03-13T10:01:11.951Z,6.85
2023-03-13T10:04:14.906Z,6.50
2023-03-13T10:07:02.886Z,6.03
2023-03-13T10:09:43.545Z,7.15
2023-03-13T10:12:47.887Z,4.00
2023-03-13T10:15:54.956Z,4.43
2023-03-13T10:18:34.940Z,3.72
2023-03-13T10:21:28.874Z,5.80
2023-03-13T10:24:33.980Z,4.60
2023-03-13T10:27:21.869Z,4.88
2023-03-13T10:30:01.940Z,4.13
2023-03-13T10:32:48.927Z,5.57
2023-03-13T10:35:37.943Z,4.50
2023-03-13T10:38:20.762Z,4.70
2023-03-13T10:41:20.887Z,5.28
2023-03-13T10:44:05.483Z,3.97
2023-03-13T10:46:56.937Z,6.03
2023-03-13T10:49:48.274Z,5.63
2023-03-13T10:52:44.875Z,6.53
2023-03-13T10:55:26.709Z,5.72
2023-03-13T10:58:14.870Z,3.28
2023-03-13T11:01:27.875Z,4.20
2023-03-13T11:04:43.891Z,6.40
2023-03-13T11:07:34.166Z,4.70
2023-03-13T11:10:43.904Z,6.00
2023-03-13T11:13:41.910Z,5.88
2023-03-13T11:16:42.961Z,5.97
2023-03-13T11:19:41.211Z,3.78
2023-03-13T11:22:27.918Z,6.68
2023-03-13T11:25:20.944Z,6.78
2023-03-13T11:28:06.880Z,5.60
2023-03-13T11:31:02.450Z,5.47
2023-03-13T11:33:53.890Z,4.13
2023-03-13T11:37:04.758Z,4.85
2023-03-13T11:39:47.895Z,7.53
2023-03-13T11:42:34.990Z,5.13
2023-03-13T11:45:49.984Z,6.15
2023-03-13T11:48:44.929Z,7.25
2023-03-13T11:51:36.320Z,6.82
2023-03-13T11:54:50.869Z,6.78
2023-03-13T11:57:33.311Z,4.65
2023-03-13T12:00:45.886Z,5.57
2023-03-13T12:03:38.228Z,5.28
2023-03-13T12:06:38.882Z,4.25
2023-03-13T12:09:23.051Z,5.97
2023-03-13T12:12:29.891Z,5.85
2023-03-13T12:15:22.919Z,6.20
2023-03-13T12:18:47.908Z,6.22
2023-03-13T12:21:59.946Z,6.95
2023-03-13T12:24:48.206Z,2.47
2023-03-13T12:27:48.016Z,4.40
2023-03-13T12:30:37.770Z,5.32
2023-03-13T12:33:44.874Z,5.72
2023-03-13T12:36:46.411Z,6.07
2023-03-13T12:39:56.901Z,5.50
2023-03-13T12:43:11.893Z,6.35
2023-03-13T12:46:08.207Z,7.95
2023-03-13T12:49:05.911Z,5.70
2023-03-13T12:51:51.965Z,6.53
2023-03-13T12:54:47.953Z,6.32
2023-03-13T12:57:34.003Z,7.60
2023-03-13T13:00:28.927Z,5.10
2023-03-13T13:03:21.055Z,7.18
2023-03-13T13:06:22.908Z,7.32
2023-03-13T13:09:14.964Z,7.38
2023-03-13T13:12:10.895Z,4.15
2023-03-13T13:14:58.065Z,7.35
2023-03-13T13:17:53.897Z,9.77
2023-03-13T13:20:47.943Z,6.78
2023-03-13T13:23:46.987Z,8.60
2023-03-13T13:29:19.967Z,8.40
2023-03-13T13:32:09.011Z,8.00
2023-03-13T13:35:07.027Z,8.43
2023-03-13T13:37:54.897Z,7.65
2023-03-13T13:40:37.986Z,12.52
2023-03-13T13:43:31.899Z,11.15
2023-03-13T13:46:31.945Z,9.75
2023-03-13T13:49:25.905Z,10.52
2023-03-13T13:52:08.997Z,12.40
2023-03-13T13:55:03.923Z,11.15
2023-03-13T13:57:45.828Z,9.05
2023-03-13T14:00:33.918Z,11.30
2023-03-13T14:03:49.907Z,13.18
2023-03-13T14:06:35.206Z,12.07
2023-03-13T14:09:38.912Z,14.75
2023-03-13T14:12:48.934Z,10.55
2023-03-13T14:15:37.907Z,16.33
2023-03-13T14:18:22.011Z,11.45
2023-03-13T14:21:20.923Z,10.98
2023-03-13T14:26:51.933Z,10.35
2023-03-13T14:29:31.969Z,13.95
2023-03-13T14:32:24.089Z,13.98
2023-03-13T14:35:05.814Z,15.73
2023-03-13T14:37:55.948Z,13.02
2023-03-13T14:40:39.361Z,10.63
2023-03-13T14:43:39.922Z,17.33
2023-03-13T14:46:34.076Z,11.80
2023-03-13T14:49:26.951Z,10.27
2023-03-13T14:52:13.020Z,13.38
2023-03-13T14:55:02.909Z,17.77
2023-03-13T14:57:49.939Z,13.02
2023-03-13T15:00:50.953Z,13.77
2023-03-13T15:03:46.911Z,13.80
2023-03-13T15:06:33.932Z,10.43
2023-03-13T15:09:31.960Z,13.65
2023-03-13T15:12:25.939Z,12.35
2023-03-13T15:15:22.934Z,15.40
2023-03-13T15:18:21.080Z,11.63
2023-03-13T15:21:10.897Z,13.13
2023-03-13T15:23:55.732Z,13.02
2023-03-13T15:26:42.923Z,11.82
2023-03-13T15:29:29.898Z,14.68
2023-03-13T15:32:10.011Z,10.30
2023-03-13T15:34:57.918Z,17.42
2023-03-13T15:37:38.061Z,22.25
2023-03-13T15:40:25.924Z,13.55
2023-03-13T15:43:12.938Z,16.15
2023-03-13T15:46:00.007Z,11.68
2023-03-13T15:48:41.358Z,14.10
2023-03-13T15:51:27.940Z,13.40
2023-03-13T15:54:14.917Z,12.30
2023-03-13T15:56:55.477Z,18.48
2023-03-13T15:59:41.936Z,18.40
2023-03-13T16:02:30.920Z,12.80
2023-03-13T16:05:11.002Z,16.55
2023-03-13T16:07:57.925Z,13.52
2023-03-13T16:10:39.010Z,13.98
2023-03-13T16:13:40.931Z,15.32
2023-03-13T16:16:36.942Z,13.27
2023-03-13T16:19:16.961Z,16.50
2023-03-13T16:21:57.414Z,12.55
2023-03-13T16:24:43.930Z,13.75
2023-03-13T16:27:32.935Z,17.33
2023-03-13T16:30:29.083Z,15.15
2023-03-13T16:33:16.925Z,13.07
2023-03-13T16:36:03.979Z,13.32
2023-03-13T16:38:51.970Z,15.77
2023-03-13T16:41:34.010Z,13.57
2023-03-13T16:44:20.946Z,13.50
2023-03-13T16:47:08.137Z,16.27
2023-03-13T16:49:48.856Z,12.80
2023-03-13T16:52:35.936Z,14.38
2023-03-13T16:55:36.626Z,15.07
2023-03-13T16:58:18.921Z,14.00
2023-03-13T17:01:06.413Z,19.27
2023-03-13T17:03:46.003Z,13.60
2023-03-13T17:06:44.991Z,14.90
2023-03-13T17:09:31.940Z,16.17
2023-03-13T17:12:12.526Z,14.32
2023-03-13T17:14:59.954Z,16.65
2023-03-13T17:17:41.151Z,18.45
2023-03-13T17:20:29.930Z,16.90
2023-03-13T17:23:10.442Z,19.23
2023-03-13T17:25:56.922Z,18.40
2023-03-13T17:28:37.430Z,21.15
2023-03-13T17:31:24.982Z,15.30
2023-03-13T17:34:19.941Z,18.83
2023-03-13T17:37:10.930Z,20.83
2023-03-13T17:39:59.942Z,17.27
2023-03-13T17:42:46.934Z,22.73
2023-03-13T17:45:27.038Z,19.48
2023-03-13T17:48:18.941Z,15.80
2023-03-13T17:50:58.980Z,15.48
2023-03-13T17:53:45.958Z,19.75
2023-03-13T17:56:32.164Z,17.88
2023-03-13T17:59:23.931Z,17.13
2023-03-13T18:02:04.063Z,16.75
2023-03-13T18:04:51.944Z,17.00
2023-03-13T18:07:33.997Z,19.23
2023-03-13T18:10:33.942Z,19.60
2023-03-13T18:13:14.067Z,19.73
2023-03-13T18:16:00.965Z,18.20
2023-03-13T18:18:41.023Z,17.83
2023-03-13T18:21:29.949Z,20.80
2023-03-13T18:24:10.068Z,19.75
2023-03-13T18:26:56.950Z,17.08
2023-03-13T18:29:36.995Z,17.13
2023-03-13T18:32:25.016Z,17.73
2023-03-13T18:35:11.951Z,18.60
2023-03-13T18:37:52.647Z,15.65
2023-03-13T18:40:41.948Z,18.40
2023-03-13T18:43:28.985Z,16.45
2023-03-13T18:46:09.005Z,17.92
2023-03-13T18:48:56.943Z,14.75
2023-03-13T18:51:43.926Z,18.40
2023-03-13T18:54:24.497Z,16.48
2023-03-13T18:57:10.942Z,20.38
2023-03-13T18:59:59.055Z,22.70
2023-03-13T19:02:39.067Z,15.10
2023-03-13T19:05:20.268Z,21.88
2023-03-13T19:08:07.041Z,18.33
2023-03-13T19:10:53.986Z,15.43
2023-03-13T19:13:47.936Z,22.00
2023-03-13T19:16:43.984Z,16.98
2023-03-13T19:19:27.007Z,16.48
2023-03-13T19:22:18.944Z,16.45
2023-03-13T19:24:59.013Z,17.83
2023-03-13T19:27:46.950Z,19.63
2023-03-13T19:30:29.989Z,16.05
2023-03-13T19:33:17.970Z,15.13
2023-03-13T19:35:58.017Z,17.73
2023-03-13T19:38:45.959Z,16.08
2023-03-13T19:41:26.039Z,20.10
2023-03-13T19:44:12.958Z,15.30
2023-03-13T19:47:01.940Z,21.80
2023-03-13T19:49:48.946Z,19.27
2023-03-13T19:52:29.078Z,15.40
2023-03-13T19:55:15.954Z,23.33
2023-03-13T19:57:57.032Z,20.30
2023-03-13T20:00:43.946Z,18.75
2023-03-13T20:06:17.963Z,18.05
2023-03-13T20:09:13.979Z,22.70
2023-03-13T20:12:00.956Z,20.15
2023-03-13T20:14:54.926Z,19.98
2023-03-13T20:17:41.956Z,20.92
2023-03-13T20:20:22.046Z,22.83
2023-03-13T20:23:08.969Z,20.75
2023-03-13T20:25:49.032Z,18.00
2023-03-13T20:28:35.960Z,19.85
2023-03-13T20:34:03.966Z,26.40
2023-03-13T20:36:44.021Z,20.27
2023-03-13T20:39:30.961Z,20.27
2023-03-13T20:42:11.557Z,22.88
2023-03-13T20:44:57.974Z,18.48
2023-03-13T20:47:38.032Z,20.45
2023-03-13T20:50:24.963Z,25.40
2023-03-13T20:53:11.958Z,17.83
2023-03-13T20:58:38.956Z,19.85
2023-03-13T21:04:07.030Z,19.05
2023-03-13T21:06:53.946Z,19.05
2023-03-13T21:09:34.339Z,24.15
2023-03-13T21:12:20.948Z,20.25
2023-03-13T21:15:08.035Z,22.58
2023-03-13T21:20:35.946Z,21.38
2023-03-13T21:23:22.961Z,18.05
2023-03-13T21:28:51.052Z,19.50
2023-03-13T21:31:39.289Z,15.40
2023-03-13T21:34:19.002Z,14.40
2023-03-13T21:37:05.961Z,17.17
2023-03-13T21:42:33.967Z,16.30
2023-03-13T21:45:15.060Z,16.70
2023-03-13T21:48:02.968Z,19.73
2023-03-13T21:50:49.963Z,15.38
2023-03-13T21:56:23.964Z,17.13
2023-03-13T22:01:50.974Z,17.75
2023-03-13T22:07:18.023Z,15.40
2023-03-13T22:10:04.971Z,18.67
2023-03-13T22:15:39.021Z,17.58
2023-03-13T22:21:09.960Z,16.13
2023-03-13T22:26:36.942Z,17.27
2023-03-13T22:29:23.968Z,18.02
2023-03-13T22:32:05.043Z,16.30
2023-03-13T22:37:34.504Z,14.68
2023-03-13T22:40:21.973Z,16.90
2023-03-13T22:43:02.980Z,14.98
2023-03-13T22:48:31.693Z,19.23
2023-03-13T22:51:21.961Z,21.63
2023-03-13T22:54:02.452Z,19.52
2023-03-13T22:56:48.953Z,16.10
2023-03-13T22:59:29.589Z,17.98
2023-03-13T23:02:15.978Z,18.92
2023-03-13T23:05:04.947Z,17.85
2023-03-13T23:07:51.960Z,16.33
2023-03-13T23:10:32.470Z,18.75
2023-03-13T23:13:18.981Z,15.63
2023-03-13T23:18:59.982Z,18.35
2023-03-13T23:24:26.967Z,16.33
2023-03-13T23:27:07.027Z,14.98
2023-03-13T23:29:54.969Z,16.33
2023-03-13T23:32:35.057Z,15.25
2023-03-13T23:35:25.977Z,18.95
2023-03-13T23:38:06.017Z,15.43
2023-03-13T23:40:52.993Z,13.95
2023-03-13T23:46:23.977Z,18.20
2023-03-13T23:49:05.084Z,14.52
2023-03-13T23:51:51.976Z,14.88
2023-03-13T23:57:18.958Z,17.33
